createdAt,value
2022-11-20T00:03:33.031Z,99843.98
2022-11-20T00:08:36.575Z,99839.73
2022-11-20T00:13:40.186Z,99836.48
2022-11-20T00:18:45.882Z,99833.75
2022-11-20T00:23:50.052Z,99833.77
2022-11-20T00:29:01.143Z,99832.77
2022-11-20T00:34:04.579Z,99829.38
2022-11-20T00:39:07.389Z,99819.04
2022-11-20T00:44:10.198Z,99826.86
2022-11-20T00:49:12.973Z,99828.07
2022-11-20T00:54:15.781Z,99827.88
2022-11-20T00:59:18.801Z,99827.18
2022-11-20T01:04:21.908Z,99825.48
2022-11-20T01:09:24.711Z,99828.17
2022-11-20T01:14:27.599Z,99825.61
2022-11-20T01:19:30.357Z,99827.64
2022-11-20T01:24:33.112Z,99828.48
2022-11-20T01:29:36.007Z,99825.07
2022-11-20T01:34:38.787Z,99819.62
2022-11-20T01:39:41.611Z,99820.63
2022-11-20T01:44:55.343Z,99815.88
2022-11-20T01:50:09.725Z,99819.94
2022-11-20T01:55:18.895Z,99820.78
2022-11-20T02:00:22.558Z,99816.17
2022-11-20T02:05:32.165Z,99818.36
2022-11-20T02:10:35.388Z,99818.88
2022-11-20T02:15:38.479Z,99815.45
2022-11-20T02:20:44.987Z,99807.42
2022-11-20T02:25:49.123Z,99799.42
2022-11-20T02:30:51.920Z,99801.41
2022-11-20T02:35:54.661Z,99800.55
2022-11-20T02:40:57.429Z,99800.73
2022-11-20T02:46:00.223Z,99804.81
2022-11-20T02:51:03.538Z,99803.42
2022-11-20T02:56:07.243Z,99801.72
2022-11-20T03:01:10.099Z,99802.90
2022-11-20T03:06:13.067Z,99797.98
2022-11-20T03:11:16.128Z,99799.86
2022-11-20T03:16:21.460Z,99797.98
2022-11-20T03:21:24.454Z,99799.66
2022-11-20T03:26:28.387Z,99796.47
2022-11-20T03:31:34.455Z,99787.28
2022-11-20T03:36:40.124Z,99783.54
2022-11-20T03:41:43.722Z,99779.14
2022-11-20T03:46:46.542Z,99775.91
2022-11-20T03:51:49.290Z,99773.69
2022-11-20T03:56:52.023Z,99771.66
2022-11-20T04:01:54.764Z,99774.55
2022-11-20T04:06:57.606Z,99776.61
2022-11-20T04:12:00.451Z,99772.33
2022-11-20T04:17:04.902Z,99772.98
2022-11-20T04:22:07.803Z,99763.98
2022-11-20T04:27:10.505Z,99761.95
2022-11-20T04:32:13.235Z,99759.91
2022-11-20T04:37:15.948Z,99758.54
2022-11-20T04:42:31.188Z,99760.40
2022-11-20T04:47:33.940Z,99763.42
2022-11-20T04:52:36.758Z,99766.09
2022-11-20T04:57:39.586Z,99762.88
2022-11-20T05:02:42.315Z,99759.48
2022-11-20T05:07:45.041Z,99762.20
2022-11-20T05:12:47.748Z,99762.23
2022-11-20T05:17:52.009Z,99761.19
2022-11-20T05:22:58.440Z,99756.94
2022-11-20T05:28:01.543Z,99748.57
2022-11-20T05:33:04.283Z,99741.20
2022-11-20T05:38:07.421Z,99741.70
2022-11-20T05:43:10.336Z,99737.46
2022-11-20T05:48:13.062Z,99737.95
2022-11-20T05:53:15.806Z,99738.27
2022-11-20T05:58:18.948Z,99737.91
2022-11-20T06:03:22.163Z,99738.42
2022-11-20T06:08:24.957Z,99732.45
2022-11-20T06:13:27.770Z,99726.36
2022-11-20T06:18:31.258Z,99727.89
2022-11-20T06:23:35.389Z,99725.48
2022-11-20T06:28:39.030Z,99723.97
2022-11-20T06:33:43.090Z,99726.19
2022-11-20T06:38:46.271Z,99722.77
2022-11-20T06:43:50.283Z,99725.16
2022-11-20T06:48:53.103Z,99723.58
2022-11-20T06:53:55.971Z,99719.10
2022-11-20T06:58:59.216Z,99717.18
2022-11-20T07:04:01.982Z,99715.96
2022-11-20T07:09:09.874Z,99717.29
2022-11-20T07:14:15.403Z,99717.08
2022-11-20T07:19:18.263Z,99712.08
2022-11-20T07:24:21.111Z,99709.78
2022-11-20T07:29:24.027Z,99714.68
2022-11-20T07:34:27.279Z,99717.66
2022-11-20T07:39:30.007Z,99707.84
2022-11-20T07:44:32.827Z,99697.88
2022-11-20T07:49:35.516Z,99703.02
2022-11-20T07:54:38.783Z,99701.77
2022-11-20T07:59:41.541Z,99700.73
2022-11-20T08:04:44.449Z,99698.00
2022-11-20T08:09:47.246Z,99695.30
2022-11-20T08:14:50.047Z,99699.24
2022-11-20T08:19:52.759Z,99701.69
2022-11-20T08:24:55.549Z,99700.86
2022-11-20T08:29:58.271Z,99691.20
2022-11-20T08:35:01.050Z,99687.75
2022-11-20T08:40:04.801Z,99684.76
2022-11-20T08:45:08.276Z,99677.21
2022-11-20T08:50:13.581Z,99670.58
2022-11-20T08:55:16.449Z,99670.94
2022-11-20T09:00:19.358Z,99668.05
2022-11-20T09:05:22.164Z,99664.04
2022-11-20T09:10:25.309Z,99664.92
2022-11-20T09:15:28.968Z,99662.17
2022-11-20T09:20:32.307Z,99658.86
2022-11-20T09:25:35.018Z,99655.08
2022-11-20T09:30:37.910Z,99654.66
2022-11-20T09:35:40.712Z,99652.73
2022-11-20T09:41:07.817Z,99650.38
2022-11-20T09:46:34.434Z,99644.73
2022-11-20T09:51:54.860Z,99641.77
2022-11-20T09:57:02.769Z,99641.16
2022-11-20T10:02:17.676Z,99643.64
2022-11-20T10:07:32.361Z,99637.14
2022-11-20T10:13:11.626Z,99638.83
2022-11-20T10:18:52.791Z,99635.77
2022-11-20T10:24:38.107Z,99639.65
2022-11-20T10:29:46.643Z,99635.88
2022-11-20T10:34:56.000Z,99634.77
2022-11-20T10:40:23.521Z,99627.58
2022-11-20T10:45:26.595Z,99627.46
2022-11-20T10:50:31.963Z,99627.92
2022-11-20T10:55:46.340Z,99626.46
2022-11-20T11:00:49.289Z,99621.41
2022-11-20T11:06:00.734Z,99613.65
2022-11-20T11:11:25.651Z,99612.55
2022-11-20T11:16:28.400Z,99614.69
2022-11-20T11:21:31.912Z,99612.86
2022-11-20T11:26:35.045Z,99615.10
2022-11-20T11:31:37.801Z,99613.58
2022-11-20T11:36:42.206Z,99609.07
2022-11-20T11:41:45.371Z,99603.68
2022-11-20T11:46:56.019Z,99606.71
2022-11-20T11:52:22.196Z,99608.65
2022-11-20T11:57:42.009Z,99596.52
2022-11-20T12:02:49.331Z,99586.41
2022-11-20T12:08:12.345Z,99579.25
2022-11-20T12:13:38.219Z,99574.88
2022-11-20T12:18:42.957Z,99571.16
2022-11-20T12:23:54.966Z,99567.34
2022-11-20T12:29:14.024Z,99566.16
2022-11-20T12:34:44.390Z,99556.85
2022-11-20T12:39:54.547Z,99553.67
2022-11-20T12:45:12.437Z,99547.85
2022-11-20T12:50:53.267Z,99543.98
2022-11-20T12:56:05.149Z,99540.88
2022-11-20T13:01:43.779Z,99537.28
2022-11-20T13:06:46.812Z,99535.08
2022-11-20T13:12:02.712Z,99530.10
2022-11-20T13:17:25.733Z,99521.83
2022-11-20T13:22:43.207Z,99515.40
2022-11-20T13:27:50.208Z,99507.30
2022-11-20T13:33:08.371Z,99500.58
2022-11-20T13:38:14.240Z,99494.10
2022-11-20T13:43:29.480Z,99494.52
2022-11-20T13:48:44.640Z,99495.25
2022-11-20T13:54:06.372Z,99486.85
2022-11-20T13:59:34.873Z,99482.58
2022-11-20T14:04:42.850Z,99478.70
2022-11-20T14:09:56.126Z,99470.42
2022-11-20T14:15:00.139Z,99471.56
2022-11-20T14:20:13.732Z,99466.10
2022-11-20T14:25:16.649Z,99464.27
2022-11-20T14:30:25.747Z,99460.84
2022-11-20T14:35:31.568Z,99458.67
2022-11-20T14:40:36.915Z,99449.86
2022-11-20T14:45:39.998Z,99446.70
2022-11-20T14:50:42.931Z,99443.61
2022-11-20T14:55:58.759Z,99443.95
2022-11-20T15:01:08.055Z,99439.91
2022-11-20T15:06:13.262Z,99442.34
2022-11-20T15:11:21.795Z,99437.23
2022-11-20T15:16:26.967Z,99430.04
2022-11-20T15:21:30.525Z,99426.02
2022-11-20T15:26:34.930Z,99425.14
2022-11-20T15:31:38.728Z,99418.52
2022-11-20T15:36:42.861Z,99417.31
2022-11-20T15:41:45.668Z,99417.52
2022-11-20T15:46:48.670Z,99416.43
2022-11-20T15:51:53.753Z,99412.86
2022-11-20T15:56:56.919Z,99404.68
2022-11-20T16:01:59.758Z,99399.02
2022-11-20T16:07:02.795Z,99396.27
2022-11-20T16:12:06.445Z,99394.92
2022-11-20T16:17:09.266Z,99396.11
2022-11-20T16:22:12.279Z,99393.52
2022-11-20T16:27:15.017Z,99391.73
2022-11-20T16:32:17.777Z,99384.30
2022-11-20T16:37:20.868Z,99383.61
2022-11-20T16:42:23.651Z,99379.67
2022-11-20T16:47:26.367Z,99381.50
2022-11-20T16:52:30.107Z,99385.81
2022-11-20T16:57:33.728Z,99387.45
2022-11-20T17:02:38.065Z,99375.87
2022-11-20T17:07:40.933Z,99379.38
2022-11-20T17:12:44.842Z,99385.73
2022-11-20T17:17:47.700Z,99388.00
2022-11-20T17:22:50.604Z,99383.80
2022-11-20T17:27:54.642Z,99376.70
2022-11-20T17:32:57.437Z,99383.23
2022-11-20T17:38:00.419Z,99382.05
2022-11-20T17:43:03.136Z,99383.31
2022-11-20T17:48:05.955Z,99375.52
2022-11-20T17:53:08.790Z,99370.42
2022-11-20T17:58:12.046Z,99372.20
2022-11-20T18:03:14.850Z,99374.34
2022-11-20T18:08:17.602Z,99373.17
2022-11-20T18:13:20.312Z,99370.95
2022-11-20T18:18:23.160Z,99365.77
2022-11-20T18:23:25.966Z,99357.30
2022-11-20T18:28:28.671Z,99359.69
2022-11-20T18:33:32.602Z,99356.29
2022-11-20T18:38:35.788Z,99354.13
2022-11-20T18:43:57.526Z,99351.08
2022-11-20T18:49:00.310Z,99353.33
2022-11-20T18:54:04.002Z,99352.54
2022-11-20T18:59:09.152Z,99347.14
2022-11-20T19:04:14.073Z,99345.27
2022-11-20T19:09:17.420Z,99343.69
2022-11-20T19:14:20.611Z,99344.89
2022-11-20T19:19:24.163Z,99343.02
2022-11-20T19:24:30.102Z,99339.52
2022-11-20T19:29:33.016Z,99338.98
2022-11-20T19:34:35.764Z,99337.34
2022-11-20T19:39:38.513Z,99341.11
2022-11-20T19:44:41.600Z,99338.17
2022-11-20T19:49:44.769Z,99332.19
2022-11-20T19:54:47.638Z,99331.20
2022-11-20T19:59:50.378Z,99325.58
2022-11-20T20:04:53.229Z,99330.82
2022-11-20T20:09:56.531Z,99329.47
2022-11-20T20:14:59.347Z,99335.64
2022-11-20T20:20:02.152Z,99335.79
2022-11-20T20:25:05.613Z,99332.52
2022-11-20T20:30:12.259Z,99331.99
2022-11-20T20:35:15.026Z,99332.79
2022-11-20T20:40:19.187Z,99336.48
2022-11-20T20:45:22.501Z,99338.40
2022-11-20T20:50:25.306Z,99338.07
2022-11-20T20:55:28.058Z,99341.08
2022-11-20T21:00:30.907Z,99342.33
2022-11-20T21:05:33.627Z,99343.87
2022-11-20T21:10:36.696Z,99346.09
2022-11-20T21:15:40.293Z,99345.94
2022-11-20T21:21:03.312Z,99346.35
2022-11-20T21:26:08.272Z,99342.39
2022-11-20T21:31:26.737Z,99340.27
2022-11-20T21:36:31.685Z,99334.54
2022-11-20T21:41:34.810Z,99330.55
2022-11-20T21:46:40.990Z,99326.23
2022-11-20T21:51:43.775Z,99322.52
2022-11-20T21:56:46.494Z,99319.49
2022-11-20T22:01:49.698Z,99313.19
2022-11-20T22:06:52.557Z,99317.02
2022-11-20T22:11:55.910Z,99312.70
2022-11-20T22:16:58.767Z,99313.48
2022-11-20T22:22:01.613Z,99309.27
2022-11-20T22:27:04.755Z,99308.77
2022-11-20T22:32:07.642Z,99303.43
2022-11-20T22:37:12.379Z,99299.89
2022-11-20T22:42:15.276Z,99299.79
2022-11-20T22:47:18.041Z,99291.83
2022-11-20T22:52:20.788Z,99284.13
2022-11-20T22:57:23.585Z,99280.27
2022-11-20T23:02:26.483Z,99276.48
2022-11-20T23:07:29.322Z,99278.44
2022-11-20T23:12:32.167Z,99282.15
2022-11-20T23:17:34.989Z,99286.50
2022-11-20T23:22:37.764Z,99288.63
2022-11-20T23:27:40.531Z,99285.06
2022-11-20T23:32:43.290Z,99284.72
2022-11-20T23:37:46.090Z,99286.51
2022-11-20T23:43:07.704Z,99289.45
2022-11-20T23:48:10.741Z,99292.73
2022-11-20T23:53:14.978Z,99284.64
2022-11-20T23:58:18.682Z,99278.27
